sensor_id;sensor_type;location;lat;lon;timestamp;temperature;humidity
18207;DHT22;9229;52.354;20.886;2023-09-19T00:02:12;19.50;99.90
18207;DHT22;9229;52.354;20.886;2023-09-19T00:07:17;19.30;99.90
18207;DHT22;9229;52.354;20.886;2023-09-19T00:12:24;19.40;99.90
18207;DHT22;9229;52.354;20.886;2023-09-19T00:17:29;19.30;99.90
18207;DHT22;9229;52.354;20.886;2023-09-19T00:22:32;19.30;99.90
18207;DHT22;9229;52.354;20.886;2023-09-19T00:27:37;19.20;99.90
18207;DHT22;9229;52.354;20.886;2023-09-19T00:32:42;19.20;99.90
18207;DHT22;9229;52.354;20.886;2023-09-19T00:37:48;19.20;99.90
18207;DHT22;9229;52.354;20.886;2023-09-19T00:42:52;19.20;99.90
18207;DHT22;9229;52.354;20.886;2023-09-19T00:48:02;19.20;99.90
18207;DHT22;9229;52.354;20.886;2023-09-19T00:53:18;19.20;99.90
18207;DHT22;9229;52.354;20.886;2023-09-19T00:58:26;19.10;99.90
18207;DHT22;9229;52.354;20.886;2023-09-19T01:03:37;19.10;99.90
18207;DHT22;9229;52.354;20.886;2023-09-19T01:08:47;19.00;99.90
18207;DHT22;9229;52.354;20.886;2023-09-19T01:13:59;19.00;99.90
18207;DHT22;9229;52.354;20.886;2023-09-19T01:25:13;18.90;99.90
18207;DHT22;9229;52.354;20.886;2023-09-19T01:30:33;18.90;99.90
18207;DHT22;9229;52.354;20.886;2023-09-19T01:35:45;18.90;99.90
18207;DHT22;9229;52.354;20.886;2023-09-19T01:40:56;18.90;99.90
18207;DHT22;9229;52.354;20.886;2023-09-19T01:46:12;19.00;99.90
18207;DHT22;9229;52.354;20.886;2023-09-19T01:51:25;18.80;99.90
18207;DHT22;9229;52.354;20.886;2023-09-19T01:56:35;18.80;99.90
18207;DHT22;9229;52.354;20.886;2023-09-19T02:01:42;18.80;99.90
18207;DHT22;9229;52.354;20.886;2023-09-19T02:06:47;18.80;99.90
18207;DHT22;9229;52.354;20.886;2023-09-19T02:11:51;18.70;99.90
18207;DHT22;9229;52.354;20.886;2023-09-19T02:17:02;18.70;99.90
18207;DHT22;9229;52.354;20.886;2023-09-19T02:22:08;18.70;99.90
18207;DHT22;9229;52.354;20.886;2023-09-19T02:27:14;18.70;99.90
18207;DHT22;9229;52.354;20.886;2023-09-19T02:32:21;18.70;99.90
18207;DHT22;9229;52.354;20.886;2023-09-19T02:37:24;18.70;99.90
18207;DHT22;9229;52.354;20.886;2023-09-19T02:42:27;18.60;99.90
18207;DHT22;9229;52.354;20.886;2023-09-19T02:47:38;18.60;99.90
18207;DHT22;9229;52.354;20.886;2023-09-19T02:52:42;18.50;99.90
18207;DHT22;9229;52.354;20.886;2023-09-19T02:57:49;18.40;99.90
18207;DHT22;9229;52.354;20.886;2023-09-19T03:02:55;18.30;99.90
18207;DHT22;9229;52.354;20.886;2023-09-19T03:08:10;18.20;99.90
18207;DHT22;9229;52.354;20.886;2023-09-19T03:13:18;18.30;99.90
18207;DHT22;9229;52.354;20.886;2023-09-19T03:18:23;18.20;99.90
18207;DHT22;9229;52.354;20.886;2023-09-19T03:23:28;18.10;99.90
18207;DHT22;9229;52.354;20.886;2023-09-19T03:28:35;18.00;99.90
18207;DHT22;9229;52.354;20.886;2023-09-19T03:33:41;18.00;99.90
18207;DHT22;9229;52.354;20.886;2023-09-19T03:38:44;17.90;99.90
18207;DHT22;9229;52.354;20.886;2023-09-19T03:43:50;17.80;99.90
18207;DHT22;9229;52.354;20.886;2023-09-19T03:48:54;17.80;99.90
18207;DHT22;9229;52.354;20.886;2023-09-19T03:53:58;17.70;99.90
18207;DHT22;9229;52.354;20.886;2023-09-19T03:59:01;17.70;99.90
18207;DHT22;9229;52.354;20.886;2023-09-19T04:04:06;17.70;99.90
18207;DHT22;9229;52.354;20.886;2023-09-19T04:09:14;17.70;99.90
18207;DHT22;9229;52.354;20.886;2023-09-19T04:14:20;17.60;99.90
18207;DHT22;9229;52.354;20.886;2023-09-19T04:19:28;17.70;99.90
18207;DHT22;9229;52.354;20.886;2023-09-19T04:24:40;17.60;99.90
18207;DHT22;9229;52.354;20.886;2023-09-19T04:29:44;17.60;99.90
18207;DHT22;9229;52.354;20.886;2023-09-19T04:34:52;17.60;99.90
18207;DHT22;9229;52.354;20.886;2023-09-19T04:39:55;17.60;99.90
18207;DHT22;9229;52.354;20.886;2023-09-19T04:45:15;17.60;99.90
18207;DHT22;9229;52.354;20.886;2023-09-19T04:50:23;17.60;99.90
18207;DHT22;9229;52.354;20.886;2023-09-19T04:55:28;17.70;99.90
18207;DHT22;9229;52.354;20.886;2023-09-19T05:00:31;17.80;99.90
18207;DHT22;9229;52.354;20.886;2023-09-19T05:05:37;17.90;99.90
18207;DHT22;9229;52.354;20.886;2023-09-19T05:10:44;18.10;99.90
18207;DHT22;9229;52.354;20.886;2023-09-19T05:15:55;18.30;99.90
18207;DHT22;9229;52.354;20.886;2023-09-19T05:21:02;18.50;99.90
18207;DHT22;9229;52.354;20.886;2023-09-19T05:26:06;18.70;99.90
18207;DHT22;9229;52.354;20.886;2023-09-19T05:31:09;19.00;99.90
18207;DHT22;9229;52.354;20.886;2023-09-19T05:36:19;19.10;99.90
18207;DHT22;9229;52.354;20.886;2023-09-19T05:41:22;19.30;99.90
18207;DHT22;9229;52.354;20.886;2023-09-19T05:46:25;19.40;99.90
18207;DHT22;9229;52.354;20.886;2023-09-19T05:51:32;19.60;99.90
18207;DHT22;9229;52.354;20.886;2023-09-19T05:56:35;19.70;99.90
18207;DHT22;9229;52.354;20.886;2023-09-19T06:01:37;20.00;99.90
18207;DHT22;9229;52.354;20.886;2023-09-19T06:06:44;20.10;99.90
18207;DHT22;9229;52.354;20.886;2023-09-19T06:11:54;20.20;99.90
18207;DHT22;9229;52.354;20.886;2023-09-19T06:17:04;20.00;99.90
18207;DHT22;9229;52.354;20.886;2023-09-19T06:22:17;20.10;99.90
18207;DHT22;9229;52.354;20.886;2023-09-19T06:27:22;20.30;99.90
18207;DHT22;9229;52.354;20.886;2023-09-19T06:32:27;20.60;99.90
18207;DHT22;9229;52.354;20.886;2023-09-19T06:37:32;20.80;99.90
18207;DHT22;9229;52.354;20.886;2023-09-19T06:42:38;21.10;99.90
18207;DHT22;9229;52.354;20.886;2023-09-19T06:47:41;21.10;99.90
18207;DHT22;9229;52.354;20.886;2023-09-19T06:52:49;21.30;99.90
18207;DHT22;9229;52.354;20.886;2023-09-19T06:57:52;21.60;99.90
18207;DHT22;9229;52.354;20.886;2023-09-19T07:02:59;22.20;99.90
18207;DHT22;9229;52.354;20.886;2023-09-19T07:08:08;22.50;99.90
18207;DHT22;9229;52.354;20.886;2023-09-19T07:13:11;22.80;99.90
18207;DHT22;9229;52.354;20.886;2023-09-19T07:18:14;23.10;99.90
18207;DHT22;9229;52.354;20.886;2023-09-19T07:23:23;23.40;99.90
18207;DHT22;9229;52.354;20.886;2023-09-19T07:28:27;23.70;99.90
18207;DHT22;9229;52.354;20.886;2023-09-19T07:33:31;24.10;99.90
18207;DHT22;9229;52.354;20.886;2023-09-19T07:38:36;24.20;99.90
18207;DHT22;9229;52.354;20.886;2023-09-19T07:43:39;24.00;99.90
18207;DHT22;9229;52.354;20.886;2023-09-19T07:48:42;23.70;99.90
18207;DHT22;9229;52.354;20.886;2023-09-19T07:53:52;23.40;99.90
18207;DHT22;9229;52.354;20.886;2023-09-19T07:58:56;23.10;99.90
18207;DHT22;9229;52.354;20.886;2023-09-19T08:04:00;22.90;99.90
18207;DHT22;9229;52.354;20.886;2023-09-19T08:09:07;22.60;99.90
18207;DHT22;9229;52.354;20.886;2023-09-19T08:14:12;22.20;99.90
18207;DHT22;9229;52.354;20.886;2023-09-19T08:19:19;22.00;99.90
18207;DHT22;9229;52.354;20.886;2023-09-19T08:24:31;21.90;99.90
18207;DHT22;9229;52.354;20.886;2023-09-19T08:29:34;21.90;99.90
18207;DHT22;9229;52.354;20.886;2023-09-19T08:34:39;21.70;99.90
18207;DHT22;9229;52.354;20.886;2023-09-19T08:39:43;21.40;99.90
18207;DHT22;9229;52.354;20.886;2023-09-19T08:44:46;21.10;99.90
18207;DHT22;9229;52.354;20.886;2023-09-19T08:49:53;20.80;99.90
18207;DHT22;9229;52.354;20.886;2023-09-19T08:55:02;20.60;99.90
18207;DHT22;9229;52.354;20.886;2023-09-19T09:00:14;20.50;99.90
18207;DHT22;9229;52.354;20.886;2023-09-19T09:05:19;20.20;99.90
18207;DHT22;9229;52.354;20.886;2023-09-19T09:10:26;19.90;99.90
18207;DHT22;9229;52.354;20.886;2023-09-19T09:15:34;19.80;99.90
18207;DHT22;9229;52.354;20.886;2023-09-19T09:20:37;19.70;99.90
18207;DHT22;9229;52.354;20.886;2023-09-19T09:25:52;19.60;99.90
18207;DHT22;9229;52.354;20.886;2023-09-19T09:31:00;19.60;99.90
18207;DHT22;9229;52.354;20.886;2023-09-19T09:36:04;19.60;99.90
18207;DHT22;9229;52.354;20.886;2023-09-19T09:41:09;19.60;99.90
18207;DHT22;9229;52.354;20.886;2023-09-19T09:46:17;19.50;99.90
18207;DHT22;9229;52.354;20.886;2023-09-19T09:51:37;19.50;99.90
18207;DHT22;9229;52.354;20.886;2023-09-19T09:57:02;19.50;99.90
18207;DHT22;9229;52.354;20.886;2023-09-19T10:02:29;19.50;99.90
18207;DHT22;9229;52.354;20.886;2023-09-19T10:07:40;19.70;99.90
18207;DHT22;9229;52.354;20.886;2023-09-19T10:12:52;19.80;99.90
18207;DHT22;9229;52.354;20.886;2023-09-19T10:18:04;20.00;99.90
18207;DHT22;9229;52.354;20.886;2023-09-19T10:23:10;20.20;99.90
18207;DHT22;9229;52.354;20.886;2023-09-19T10:28:20;20.40;99.90
18207;DHT22;9229;52.354;20.886;2023-09-19T10:33:35;20.60;99.90
18207;DHT22;9229;52.354;20.886;2023-09-19T10:38:44;20.80;99.90
18207;DHT22;9229;52.354;20.886;2023-09-19T10:43:51;21.00;99.90
18207;DHT22;9229;52.354;20.886;2023-09-19T10:48:59;20.80;99.90
18207;DHT22;9229;52.354;20.886;2023-09-19T10:54:06;20.90;99.90
18207;DHT22;9229;52.354;20.886;2023-09-19T10:59:16;21.10;99.90
18207;DHT22;9229;52.354;20.886;2023-09-19T11:04:26;21.40;99.90
18207;DHT22;9229;52.354;20.886;2023-09-19T11:09:44;21.60;99.90
18207;DHT22;9229;52.354;20.886;2023-09-19T11:14:49;21.70;99.90
18207;DHT22;9229;52.354;20.886;2023-09-19T11:20:24;21.80;99.90
18207;DHT22;9229;52.354;20.886;2023-09-19T11:25:43;22.30;99.90
18207;DHT22;9229;52.354;20.886;2023-09-19T11:30:52;22.60;99.90
18207;DHT22;9229;52.354;20.886;2023-09-19T11:36:05;22.50;99.90
18207;DHT22;9229;52.354;20.886;2023-09-19T11:41:36;22.20;99.90
18207;DHT22;9229;52.354;20.886;2023-09-19T11:46:54;22.00;99.90
18207;DHT22;9229;52.354;20.886;2023-09-19T11:51:58;21.80;99.90
18207;DHT22;9229;52.354;20.886;2023-09-19T11:57:02;21.70;99.90
18207;DHT22;9229;52.354;20.886;2023-09-19T12:02:07;21.80;99.90
18207;DHT22;9229;52.354;20.886;2023-09-19T12:07:14;21.90;99.90
18207;DHT22;9229;52.354;20.886;2023-09-19T12:12:22;22.00;99.90
18207;DHT22;9229;52.354;20.886;2023-09-19T12:17:36;22.00;99.90
18207;DHT22;9229;52.354;20.886;2023-09-19T12:22:41;22.00;99.90
18207;DHT22;9229;52.354;20.886;2023-09-19T12:27:45;21.80;99.90
18207;DHT22;9229;52.354;20.886;2023-09-19T12:32:51;21.70;99.90
18207;DHT22;9229;52.354;20.886;2023-09-19T12:37:54;21.70;99.90
18207;DHT22;9229;52.354;20.886;2023-09-19T12:43:00;21.80;99.90
18207;DHT22;9229;52.354;20.886;2023-09-19T12:48:21;21.80;99.90
18207;DHT22;9229;52.354;20.886;2023-09-19T12:53:35;22.00;99.90
18207;DHT22;9229;52.354;20.886;2023-09-19T12:58:51;21.90;99.90
18207;DHT22;9229;52.354;20.886;2023-09-19T13:04:16;21.90;99.90
18207;DHT22;9229;52.354;20.886;2023-09-19T13:09:22;22.00;99.90
18207;DHT22;9229;52.354;20.886;2023-09-19T13:14:26;22.30;99.90
18207;DHT22;9229;52.354;20.886;2023-09-19T13:19:41;22.30;99.90
18207;DHT22;9229;52.354;20.886;2023-09-19T13:24:49;22.40;99.90
18207;DHT22;9229;52.354;20.886;2023-09-19T13:29:52;22.50;99.90
18207;DHT22;9229;52.354;20.886;2023-09-19T13:34:56;22.60;99.90
18207;DHT22;9229;52.354;20.886;2023-09-19T13:39:58;22.50;99.90
18207;DHT22;9229;52.354;20.886;2023-09-19T13:45:00;22.40;99.90
18207;DHT22;9229;52.354;20.886;2023-09-19T13:50:06;22.40;99.90
18207;DHT22;9229;52.354;20.886;2023-09-19T13:55:08;22.30;99.90
18207;DHT22;9229;52.354;20.886;2023-09-19T14:00:11;22.20;99.90
18207;DHT22;9229;52.354;20.886;2023-09-19T14:05:19;22.10;99.90
18207;DHT22;9229;52.354;20.886;2023-09-19T14:10:22;22.00;99.90
18207;DHT22;9229;52.354;20.886;2023-09-19T14:15:23;21.90;99.90
18207;DHT22;9229;52.354;20.886;2023-09-19T14:20:31;21.70;99.90
18207;DHT22;9229;52.354;20.886;2023-09-19T14:25:34;21.60;99.90
18207;DHT22;9229;52.354;20.886;2023-09-19T14:30:36;21.50;99.90
18207;DHT22;9229;52.354;20.886;2023-09-19T14:35:40;21.50;99.90
18207;DHT22;9229;52.354;20.886;2023-09-19T14:40:42;21.50;99.90
18207;DHT22;9229;52.354;20.886;2023-09-19T14:45:44;21.60;99.90
18207;DHT22;9229;52.354;20.886;2023-09-19T14:50:49;21.60;99.90
18207;DHT22;9229;52.354;20.886;2023-09-19T14:55:52;21.70;99.90
18207;DHT22;9229;52.354;20.886;2023-09-19T15:01:02;21.70;99.90
18207;DHT22;9229;52.354;20.886;2023-09-19T15:06:08;21.80;99.90
18207;DHT22;9229;52.354;20.886;2023-09-19T15:11:10;21.70;99.90
18207;DHT22;9229;52.354;20.886;2023-09-19T15:16:14;21.70;99.90
18207;DHT22;9229;52.354;20.886;2023-09-19T15:21:18;21.70;99.90
18207;DHT22;9229;52.354;20.886;2023-09-19T15:26:20;21.70;99.90
18207;DHT22;9229;52.354;20.886;2023-09-19T15:31:23;21.70;99.90
18207;DHT22;9229;52.354;20.886;2023-09-19T15:36:26;21.80;99.90
18207;DHT22;9229;52.354;20.886;2023-09-19T15:41:30;21.70;99.90
18207;DHT22;9229;52.354;20.886;2023-09-19T15:46:33;21.50;99.90
18207;DHT22;9229;52.354;20.886;2023-09-19T15:51:37;21.60;99.90
18207;DHT22;9229;52.354;20.886;2023-09-19T15:56:41;21.50;99.90
18207;DHT22;9229;52.354;20.886;2023-09-19T16:01:43;21.40;99.90
18207;DHT22;9229;52.354;20.886;2023-09-19T16:06:47;21.30;99.90
18207;DHT22;9229;52.354;20.886;2023-09-19T16:11:49;21.20;99.90
18207;DHT22;9229;52.354;20.886;2023-09-19T16:16:51;21.10;99.90
18207;DHT22;9229;52.354;20.886;2023-09-19T16:21:54;20.90;99.90
18207;DHT22;9229;52.354;20.886;2023-09-19T16:26:57;20.80;99.90
18207;DHT22;9229;52.354;20.886;2023-09-19T16:32:00;20.70;99.90
18207;DHT22;9229;52.354;20.886;2023-09-19T16:37:04;20.60;99.90
18207;DHT22;9229;52.354;20.886;2023-09-19T16:42:06;20.50;99.90
18207;DHT22;9229;52.354;20.886;2023-09-19T16:47:11;20.40;99.90
18207;DHT22;9229;52.354;20.886;2023-09-19T16:52:15;20.40;99.90
18207;DHT22;9229;52.354;20.886;2023-09-19T16:57:17;20.40;99.90
18207;DHT22;9229;52.354;20.886;2023-09-19T17:02:23;20.30;99.90
18207;DHT22;9229;52.354;20.886;2023-09-19T17:07:26;20.10;99.90
18207;DHT22;9229;52.354;20.886;2023-09-19T17:12:28;20.00;99.90
18207;DHT22;9229;52.354;20.886;2023-09-19T17:17:30;19.80;99.90
18207;DHT22;9229;52.354;20.886;2023-09-19T17:22:35;19.60;99.90
18207;DHT22;9229;52.354;20.886;2023-09-19T17:27:38;19.40;99.90
18207;DHT22;9229;52.354;20.886;2023-09-19T17:32:43;19.30;99.90
18207;DHT22;9229;52.354;20.886;2023-09-19T17:38:13;19.20;99.90
18207;DHT22;9229;52.354;20.886;2023-09-19T17:43:15;19.00;99.90
18207;DHT22;9229;52.354;20.886;2023-09-19T17:48:18;18.80;99.90
18207;DHT22;9229;52.354;20.886;2023-09-19T17:53:21;18.80;99.90
18207;DHT22;9229;52.354;20.886;2023-09-19T17:58:23;18.60;99.90
18207;DHT22;9229;52.354;20.886;2023-09-19T18:03:25;18.50;99.90
18207;DHT22;9229;52.354;20.886;2023-09-19T18:08:29;18.40;99.90
18207;DHT22;9229;52.354;20.886;2023-09-19T18:13:34;18.30;99.90
18207;DHT22;9229;52.354;20.886;2023-09-19T18:18:36;18.20;99.90
18207;DHT22;9229;52.354;20.886;2023-09-19T18:23:40;18.00;99.90
18207;DHT22;9229;52.354;20.886;2023-09-19T18:28:43;17.90;99.90
18207;DHT22;9229;52.354;20.886;2023-09-19T18:33:45;17.80;99.90
18207;DHT22;9229;52.354;20.886;2023-09-19T18:38:50;17.60;99.90
18207;DHT22;9229;52.354;20.886;2023-09-19T18:43:53;17.50;99.90
18207;DHT22;9229;52.354;20.886;2023-09-19T18:48:55;17.40;99.90
18207;DHT22;9229;52.354;20.886;2023-09-19T18:53:59;17.20;99.90
18207;DHT22;9229;52.354;20.886;2023-09-19T18:59:04;17.10;99.90
18207;DHT22;9229;52.354;20.886;2023-09-19T19:04:15;17.10;99.90
18207;DHT22;9229;52.354;20.886;2023-09-19T19:09:23;17.00;99.90
18207;DHT22;9229;52.354;20.886;2023-09-19T19:14:26;16.80;99.90
18207;DHT22;9229;52.354;20.886;2023-09-19T19:19:28;16.70;99.90
18207;DHT22;9229;52.354;20.886;2023-09-19T19:24:35;16.60;99.90
18207;DHT22;9229;52.354;20.886;2023-09-19T19:29:38;16.50;99.90
18207;DHT22;9229;52.354;20.886;2023-09-19T19:34:40;16.40;99.90
18207;DHT22;9229;52.354;20.886;2023-09-19T19:39:53;16.30;99.90
18207;DHT22;9229;52.354;20.886;2023-09-19T19:45:06;16.10;99.90
18207;DHT22;9229;52.354;20.886;2023-09-19T19:50:10;16.00;99.90
18207;DHT22;9229;52.354;20.886;2023-09-19T19:55:15;15.90;99.90
18207;DHT22;9229;52.354;20.886;2023-09-19T20:00:18;15.80;99.90
18207;DHT22;9229;52.354;20.886;2023-09-19T20:05:21;15.70;99.90
18207;DHT22;9229;52.354;20.886;2023-09-19T20:10:24;15.60;99.90
18207;DHT22;9229;52.354;20.886;2023-09-19T20:15:26;15.50;99.90
18207;DHT22;9229;52.354;20.886;2023-09-19T20:20:30;15.40;99.90
18207;DHT22;9229;52.354;20.886;2023-09-19T20:25:35;15.20;99.90
18207;DHT22;9229;52.354;20.886;2023-09-19T20:30:38;15.10;99.90
18207;DHT22;9229;52.354;20.886;2023-09-19T20:35:41;15.00;99.90
18207;DHT22;9229;52.354;20.886;2023-09-19T20:40:44;14.90;99.90
18207;DHT22;9229;52.354;20.886;2023-09-19T20:45:47;14.70;99.90
18207;DHT22;9229;52.354;20.886;2023-09-19T20:50:49;14.60;99.90
18207;DHT22;9229;52.354;20.886;2023-09-19T20:55:59;14.60;99.90
18207;DHT22;9229;52.354;20.886;2023-09-19T21:01:02;14.50;99.90
18207;DHT22;9229;52.354;20.886;2023-09-19T21:06:05;14.40;99.90
18207;DHT22;9229;52.354;20.886;2023-09-19T21:11:13;14.30;99.90
18207;DHT22;9229;52.354;20.886;2023-09-19T21:16:15;14.30;99.90
18207;DHT22;9229;52.354;20.886;2023-09-19T21:21:17;14.20;99.90
18207;DHT22;9229;52.354;20.886;2023-09-19T21:26:22;14.10;99.90
18207;DHT22;9229;52.354;20.886;2023-09-19T21:31:24;14.00;99.90
18207;DHT22;9229;52.354;20.886;2023-09-19T21:36:26;13.90;99.90
18207;DHT22;9229;52.354;20.886;2023-09-19T21:41:34;13.90;99.90
18207;DHT22;9229;52.354;20.886;2023-09-19T21:46:36;13.90;99.90
18207;DHT22;9229;52.354;20.886;2023-09-19T21:51:40;13.80;99.90
18207;DHT22;9229;52.354;20.886;2023-09-19T21:56:43;13.80;99.90
18207;DHT22;9229;52.354;20.886;2023-09-19T22:01:45;13.70;99.90
18207;DHT22;9229;52.354;20.886;2023-09-19T22:06:48;13.70;99.90
18207;DHT22;9229;52.354;20.886;2023-09-19T22:11:51;13.70;99.90
18207;DHT22;9229;52.354;20.886;2023-09-19T22:16:55;13.60;99.90
18207;DHT22;9229;52.354;20.886;2023-09-19T22:22:00;13.60;99.90
18207;DHT22;9229;52.354;20.886;2023-09-19T22:27:05;13.60;99.90
18207;DHT22;9229;52.354;20.886;2023-09-19T22:32:07;13.50;99.90
18207;DHT22;9229;52.354;20.886;2023-09-19T22:37:10;13.40;99.90
18207;DHT22;9229;52.354;20.886;2023-09-19T22:42:13;13.40;99.90
18207;DHT22;9229;52.354;20.886;2023-09-19T22:47:17;13.40;99.90
18207;DHT22;9229;52.354;20.886;2023-09-19T22:52:19;13.40;99.90
18207;DHT22;9229;52.354;20.886;2023-09-19T22:57:23;13.30;99.90
18207;DHT22;9229;52.354;20.886;2023-09-19T23:02:25;13.50;99.90
18207;DHT22;9229;52.354;20.886;2023-09-19T23:07:29;13.30;99.90
18207;DHT22;9229;52.354;20.886;2023-09-19T23:12:32;13.30;99.90
18207;DHT22;9229;52.354;20.886;2023-09-19T23:17:34;13.20;99.90
18207;DHT22;9229;52.354;20.886;2023-09-19T23:22:37;13.20;99.90
18207;DHT22;9229;52.354;20.886;2023-09-19T23:27:43;13.20;99.90
18207;DHT22;9229;52.354;20.886;2023-09-19T23:32:51;13.20;99.90
18207;DHT22;9229;52.354;20.886;2023-09-19T23:37:53;13.20;99.90
18207;DHT22;9229;52.354;20.886;2023-09-19T23:42:57;13.20;99.90
18207;DHT22;9229;52.354;20.886;2023-09-19T23:47:59;13.20;99.90
18207;DHT22;9229;52.354;20.886;2023-09-19T23:53:01;13.10;99.90
18207;DHT22;9229;52.354;20.886;2023-09-19T23:58:08;13.00;99.90
